Current Weather Conditions from Arkansas, Oklahoma, Missouri & Kansas

As well as selected U.S. cities associated with XNA Flights


KVBT - Bentonville Arkansas, Airport
Updated: Fri, Dec-Fri-2018 1:13am
Mist, Overcast
Mist, Overcast
 Wind from N
Wind: N 13 mph , 20 km/h, Gust: 21 mph , 33 km/h
Temperature: 45°F , 7°C
Wind Chill: 39°F , 4°C
Dew Point: 43°F , 6°C
Humidity: 93%
Barometer: 29.92 inHg , 1013.2 hPa
Summary: Mist
Clouds: Overcast
Visibility: 2 1/2 miles , 2 km
Cloud details: Overcast 300 ft
2018/12/14 07:13 KVBT 140713Z AUTO 01011G18KT 2 1/2SM BR OVC003 07/06 A2992 RMK AO2
KROG - Rogers Arkansas, Airport
Updated: Fri, Dec-Fri-2018 12:58am
Light rain, Mist, Overcast
Light rain, Mist, Overcast
 Wind from N
Wind: N 14 mph , 22 km/h, Gust: 20 mph , 31 km/h
Temperature: 45°F , 7°C
Wind Chill: 39°F , 4°C
Dew Point: 45°F , 7°C
Humidity: 100%
Barometer: 29.91 inHg , 1012.9 hPa
Summary: Light rain, Mist
Clouds: Overcast
Visibility: 3 miles , 5 km
Cloud details: Overcast 300 ft
2018/12/14 06:58 KROG 140658Z AUTO 01012G17KT 3SM -RA BR OVC003 07/07 A2991 RMK AO2 SLP127 P0000 T00720067
KXNA - Northwest Arkansas Regional Airport
Updated: Fri, Dec-Fri-2018 12:53am
Mist, Overcast
Mist, Overcast
 Wind from NNE
Wind: NNE 14 mph , 22 km/h
Temperature: 46°F , 8°C
Wind Chill: 40°F , 4°C
Dew Point: 43°F , 6°C
Humidity: 87%
Barometer: 29.90 inHg , 1012.5 hPa
Summary: Mist
Clouds: Overcast
Visibility: 5 miles , 8 km
Cloud details: Overcast 300 ft
2018/12/14 06:53 KXNA 140653Z AUTO 02012KT 5SM BR OVC003 08/06 A2990 RMK AO2 SLP124 T00780056
 
KSLG - Siloam Spring Arkansas, Airport
Updated: Fri, Dec-Fri-2018 12:56am
Overcast
Overcast
 Wind from NNE
Wind: NNE 16 mph , 26 km/h, Gust: 23 mph , 37 km/h
Temperature: 45°F , 7°C
Wind Chill: 38°F , 3°C
Dew Point: 45°F , 7°C
Humidity: 100%
Barometer: 29.91 inHg , 1012.9 hPa
Clouds: Overcast
Visibility: 10 miles , 16 km
Cloud details: Overcast 400 ft
2018/12/14 06:56 KSLG 140656Z AUTO 02014G20KT 10SM OVC004 07/07 A2991 RMK AO2 SLP128 T00720067
KASG - Springdale, Arkansas, Airport
Updated: Thu, Dec-Thu-2018 8:48pm
NOT Current
Overcast
Overcast
 Wind from N
Wind: N 0 mph , 0 km/h
Temperature: 50°F , 10°C
Dew Point: 50°F , 10°C
Humidity: 100%
Barometer: 29.87 inHg , 1011.5 hPa
Clouds: Overcast
Visibility: 7 miles , 11 km
Cloud details: Overcast 500 ft
2018/12/14 02:48 KASG 140248Z 0209G14KT 7SM OVC005 10/10 A2987
KFYV - Fayetteville Arkansas, Airport
Updated: Fri, Dec-Fri-2018 12:53am
Overcast
Overcast
 Wind from N
Wind: N 8 mph , 13 km/h
Temperature: 48°F , 9°C
Wind Chill: 44°F , 7°C
Dew Point: 46°F , 8°C
Humidity: 94%
Barometer: 29.88 inHg , 1011.9 hPa
Clouds: Overcast
Visibility: 9 miles , 14 km
Cloud details: Overcast 700 ft
2018/12/14 06:53 KFYV 140653Z AUTO 01007KT 9SM OVC007 09/08 A2988 RMK AO2 RAE20 SLP113 P0001 T00940083
 
KHRO - Harrison, Arkansas
Updated: Fri, Dec-Fri-2018 1:02am
Light rain, Mist, Overcast
Light rain, Mist, Overcast
 Wind from NNE
Wind: NNE 10 mph , 17 km/h
Temperature: 50°F , 10°C
Wind Chill: 46°F , 8°C
Dew Point: 50°F , 10°C
Humidity: 100%
Barometer: 29.87 inHg , 1011.5 hPa
Summary: Light rain, Mist
Clouds: Overcast
Visibility: 4 miles , 6 km
Cloud details: Overcast 300 ft
2018/12/14 07:02 KHRO 140702Z AUTO 02009KT 4SM -RA BR OVC003 10/10 A2987 RMK AO2 P0000 T01000100
KFLP - Flippin, Arkansas
Updated: Fri, Dec-Fri-2018 12:56am
Light rain, Overcast
Light rain, Overcast
 Wind from NNE
Wind: NNE 7 mph , 11 km/h
Temperature: 52°F , 11°C
Dew Point: 52°F , 11°C
Humidity: 100%
Barometer: 29.89 inHg , 1012.2 hPa
Summary: Light rain
Clouds: Overcast
Visibility: 10 miles , 16 km
Cloud details: Mostly cloudy 700 ft
Overcast 1100 ft
2018/12/14 06:56 KFLP 140656Z AUTO 02006KT 10SM -RA BKN007 OVC011 11/11 A2989 RMK AO2 CIG 005V010 SLP121 P0001 T01060106
KBPK - Mountain Home, Arkansas
Updated: Fri, Dec-Fri-2018 12:53am
Overcast
Overcast
 Wind from E
Wind: E 7 mph , 11 km/h
Temperature: 52°F , 11°C
Dew Point: 50°F , 10°C
Humidity: 94%
Barometer: 29.87 inHg , 1011.5 hPa
Clouds: Overcast
Visibility: 10 miles , 16 km
Cloud details: Overcast 400 ft
2018/12/14 06:53 KBPK 140653Z AUTO 08006KT 10SM OVC004 11/10 A2987 RMK AO2 RAB32E43 CIG 003V007 SLP115 P0000 T01060100
 
KCCA - Clinton, Arkansas
Updated: Fri, Dec-Fri-2018 12:55am
Overcast
Overcast
 Wind from calm
Wind: Calm
Temperature: 54°F , 12°C
Dew Point: 52°F , 11°C
Humidity: 94%
Barometer: 29.85 inHg , 1010.8 hPa
Clouds: Overcast
Visibility: 8 miles , 13 km
Cloud details: Mostly cloudy 1000 ft
Overcast 1500 ft
2018/12/14 06:55 KCCA 140655Z AUTO 00000KT 8SM BKN010 OVC015 12/11 A2985 RMK AO2
KRUE - Russellville, Arkansas
Updated: Fri, Dec-Fri-2018 12:53am
Overcast
Overcast
 Wind from ENE
Wind: ENE 9 mph , 15 km/h
Temperature: 55°F , 13°C
Dew Point: 52°F , 11°C
Humidity: 88%
Barometer: 29.80 inHg , 1009.1 hPa
Clouds: Overcast
Visibility: 10 miles , 16 km
Cloud details: Overcast 800 ft
2018/12/14 06:53 KRUE 140653Z AUTO 06008KT 10SM OVC008 13/11 A2980 RMK AO2 SLP088 T01280111
KBVX - Batesville, Arkansa
Updated: Fri, Dec-Fri-2018 12:56am
Light rain, Mist, Overcast
Light rain, Mist, Overcast
 Wind from ENE
Wind: ENE 8 mph , 13 km/h
Temperature: 52°F , 11°C
Dew Point: 52°F , 11°C
Humidity: 100%
Barometer: 29.88 inHg , 1011.9 hPa
Summary: Light rain, Mist
Clouds: Overcast
Visibility: 2 miles , 3 km
Cloud details: Overcast 400 ft
2018/12/14 06:56 KBVX 140656Z AUTO 06007KT 2SM -RA BR OVC004 11/11 A2988 RMK AO2 CIG 003V007 SLP119 P0003 T01110106
 
KBYH - Blytheville, Arkansas
Updated: Thu, Dec-Thu-2018 4:50pm
NOT Current
Overcast
Overcast
 Wind from SE
Wind: SE 13 mph , 20 km/h, Gust: 18 mph , 30 km/h
Temperature: 57°F , 14°C
Dew Point: 52°F , 11°C
Humidity: 82%
Barometer: 29.91 inHg , 1012.9 hPa
Clouds: Overcast
Visibility: 10 miles , 16 km
Cloud details: Mostly cloudy 5000 ft
Overcast 9000 ft
2018/12/13 22:50 KBYH 132250Z 14011G16KT 10SM BKN050 OVC090 14/11 A2991 RMK LAST
KM19 - Newport, Arkansas
Updated: Fri, Dec-Fri-2018 1:15am
Light rain, Mist, Overcast
Light rain, Mist, Overcast
 Wind from ENE
Wind: ENE 6 mph , 9 km/h
Temperature: 52°F , 11°C
Dew Point: 52°F , 11°C
Humidity: 100%
Barometer: 29.89 inHg , 1012.2 hPa
Summary: Light rain, Mist
Clouds: Overcast
Visibility: 2 1/2 miles , 2 km
Cloud details: Overcast 300 ft
2018/12/14 07:15 KM19 140715Z AUTO 06005KT 2 1/2SM -RA BR OVC003 11/11 A2989 RMK AO2 P0000
KSRC - Searcy, Arkansas
Updated: Fri, Dec-Fri-2018 12:56am
Light rain, Mist, Overcast
Light rain, Mist, Overcast
 Wind from ENE
Wind: ENE 8 mph , 13 km/h
Temperature: 54°F , 12°C
Dew Point: 54°F , 12°C
Humidity: 100%
Barometer: 29.85 inHg , 1010.8 hPa
Summary: Light rain, Mist
Clouds: Overcast
Visibility: 2 miles , 3 km
Cloud details: Overcast 300 ft
2018/12/14 06:56 KSRC 140656Z AUTO 07007KT 2SM -RA BR OVC003 12/12 A2985 RMK AO2 SLP119 P0001 T01170117
 
KARG - Walnut Ridge, Arkansas
Updated: Fri, Dec-Fri-2018 1:17am
Light rain, Mist, Overcast
Light rain, Mist, Overcast
 Wind from ENE
Wind: ENE 9 mph , 15 km/h
Temperature: 52°F , 11°C
Dew Point: 50°F , 10°C
Humidity: 94%
Barometer: 29.91 inHg , 1012.9 hPa
Summary: Light rain, Mist
Clouds: Overcast
Visibility: 5 miles , 8 km
Cloud details: Mostly cloudy 1200 ft
Overcast 2400 ft
2018/12/14 07:17 KARG 140717Z AUTO 06008KT 5SM -RA BR BKN012 OVC024 11/10 A2991 RMK AO2 P0001
KJBR - Jonesboro, Arkansas
Updated: Fri, Dec-Fri-2018 12:53am
Mist, Overcast
Mist, Overcast
 Wind from ENE
Wind: ENE 10 mph , 17 km/h
Temperature: 52°F , 11°C
Dew Point: 52°F , 11°C
Humidity: 100%
Barometer: 29.89 inHg , 1012.2 hPa
Summary: Mist
Clouds: Overcast
Visibility: 4 miles , 6 km
Cloud details: Overcast 700 ft
2018/12/14 06:53 KJBR 140653Z AUTO 07009KT 4SM BR OVC007 11/11 A2989 RMK AO2 RAE25 CIG 003V009 SLP122 P0003 T01060106
K4M9 - Corning, Arkansas
Updated: Fri, Dec-Fri-2018 12:55am
Overcast
Overcast
 Wind from E
Wind: E 8 mph , 13 km/h
Temperature: 52°F , 11°C
Dew Point: 52°F , 11°C
Humidity: 100%
Barometer: 29.93 inHg , 1013.5 hPa
Clouds: Overcast
Visibility: 10 miles , 16 km
Cloud details: Overcast 800 ft
2018/12/14 06:55 K4M9 140655Z AUTO 08007KT 10SM OVC008 11/11 A2993 RMK AO2 PWINO
 
KLRF - Little Rock Afb, Arkansas
Updated: Fri, Dec-Fri-2018 1:10am
Overcast
Overcast
 Wind from ENE
Wind: ENE 8 mph , 13 km/h
Temperature: 55°F , 13°C
Dew Point: 55°F , 13°C
Humidity: 100%
Barometer: 29.80 inHg , 1009.1 hPa
Clouds: Overcast
Visibility: 7 miles , 11 km
Cloud details: Overcast 200 ft
2018/12/14 07:10 KLRF 140710Z AUTO 07007KT 7SM OVC002 13/13 A2980 RMK AO2 RAE09DZB09E10 SLP094 $
KLIT - Little Rock, Arkansas
Updated: Fri, Dec-Fri-2018 12:53am
Mist, Overcast
Mist, Overcast
 Wind from NE
Wind: NE 7 mph , 11 km/h
Temperature: 54°F , 12°C
Dew Point: 54°F , 12°C
Humidity: 100%
Barometer: 29.80 inHg , 1009.1 hPa
Summary: Mist
Clouds: Overcast
Visibility: 1 mile , 2 km
Cloud details: Overcast 300 ft
2018/12/14 06:53 KLIT 140653Z 05006KT 1SM BR OVC003 12/12 A2980 RMK AO2 RAE11 SLP095 P0000 T01220122 RVRNO $
KSGT - Stuttgart, Arkansas
Updated: Fri, Dec-Fri-2018 12:56am
Light rain, Overcast
Light rain, Overcast
 Wind from ESE
Wind: ESE 14 mph , 22 km/h
Temperature: 55°F , 13°C
Dew Point: 54°F , 12°C
Humidity: 94%
Barometer: 29.81 inHg , 1009.5 hPa
Summary: Light rain
Clouds: Overcast
Visibility: 10 miles , 16 km
Cloud details: Overcast 500 ft
2018/12/14 06:56 KSGT 140656Z AUTO 11012KT 10SM -RA OVC005 13/12 A2981 RMK AO2 RAB30 SLP094 P0000 T01280117
 
KAWM - West Memphis, Arkansas
Updated: Fri, Dec-Fri-2018 12:53am
Overcast
Overcast
 Wind from SE
Wind: SE 10 mph , 17 km/h
Temperature: 54°F , 12°C
Dew Point: 54°F , 12°C
Humidity: 100%
Barometer: 29.86 inHg , 1011.2 hPa
Clouds: Overcast
Visibility: 10 miles , 16 km
Cloud details: Overcast 1200 ft
2018/12/14 06:53 KAWM 140653Z AUTO 14009KT 10SM OVC012 12/12 A2986 RMK AO2 SLP111 T01220117 $
KFSM - Fort Smith, Arkansas
Updated: Fri, Dec-Fri-2018 12:53am
Light rain, Mist, Overcast
Light rain, Mist, Overcast
 Wind from NNE
Wind: NNE 9 mph , 15 km/h
Temperature: 54°F , 12°C
Dew Point: 52°F , 11°C
Humidity: 94%
Barometer: 29.82 inHg , 1009.8 hPa
Summary: Light rain, Mist
Clouds: Overcast
Visibility: 5 miles , 8 km
Cloud details: Few Clouds 700 ft
Overcast 1600 ft
2018/12/14 06:53 KFSM 140653Z AUTO 03008KT 5SM -RA BR FEW007 OVC016 12/11 A2982 RMK AO2 SLP097 P0004 T01170106
KMWT - Mount Ida, Arkansas
Updated: Fri, Dec-Fri-2018 12:53am
Mist, Overcast
Mist, Overcast
 Wind from calm
Wind: Calm
Temperature: 54°F , 12°C
Dew Point: 54°F , 12°C
Humidity: 100%
Barometer: 29.75 inHg , 1007.5 hPa
Summary: Mist
Clouds: Overcast
Visibility: 2 miles , 3 km
Cloud details: Overcast 300 ft
2018/12/14 06:53 KMWT 140653Z AUTO 00000KT 2SM BR OVC003 12/12 A2975 RMK AO2 RAB0554E12 SLP072 P0002 T01220117
 
KMEZ - Mena, Arkansas
Updated: Fri, Dec-Fri-2018 12:55am
Overcast
Overcast
 Wind from calm
Wind: Calm
Temperature: 54°F , 12°C
Dew Point: 54°F , 12°C
Humidity: 100%
Barometer: 29.77 inHg , 1008.1 hPa
Clouds: Overcast
Visibility: 10 miles , 16 km
Cloud details: Overcast 700 ft
2018/12/14 06:55 KMEZ 140655Z AUTO 00000KT 10SM OVC007 12/12 A2977 RMK AO2
KHOT - Hot Springs, Arkansas
Updated: Fri, Dec-Fri-2018 12:53am
Overcast
Overcast
 Wind from ENE
Wind: ENE 10 mph , 17 km/h
Temperature: 55°F , 13°C
Dew Point: 55°F , 13°C
Humidity: 100%
Barometer: 29.76 inHg , 1007.8 hPa
Clouds: Overcast
Visibility: 10 miles , 16 km
Cloud details: Overcast 1600 ft
2018/12/14 06:53 KHOT 140653Z AUTO 07009KT 10SM OVC016 13/13 A2976 RMK AO2 RAE43 SLP076 P0005 T01330133
KADF - Arkadelphia, Arkansas
Updated: Fri, Dec-Fri-2018 12:16am
Light rain
Light rain
 
Temperature: 55°F , 13°C
Dew Point: 55°F , 13°C
Humidity: 100%
Summary: Light rain
Visibility: 8 miles , 13 km
2018/12/14 06:16 KADF 140616Z AUTO 8SM -RA 13/13 RMK AO2 P0001 TSNO $
 
KSGT - Stuttgart, Arkansas
Updated: Fri, Dec-Fri-2018 12:56am
Light rain, Overcast
Light rain, Overcast
 Wind from ESE
Wind: ESE 14 mph , 22 km/h
Temperature: 55°F , 13°C
Dew Point: 54°F , 12°C
Humidity: 94%
Barometer: 29.81 inHg , 1009.5 hPa
Summary: Light rain
Clouds: Overcast
Visibility: 10 miles , 16 km
Cloud details: Overcast 500 ft
2018/12/14 06:56 KSGT 140656Z AUTO 11012KT 10SM -RA OVC005 13/12 A2981 RMK AO2 RAB30 SLP094 P0000 T01280117
KPBF - Pine Bluff, Arkansas
Updated: Fri, Dec-Fri-2018 1:15am
Light rain, Overcast
Light rain, Overcast
 Wind from ESE
Wind: ESE 14 mph , 22 km/h, Gust: 21 mph , 33 km/h
Temperature: 55°F , 13°C
Dew Point: 54°F , 12°C
Humidity: 94%
Barometer: 29.79 inHg , 1008.8 hPa
Summary: Light rain
Clouds: Overcast
Visibility: 9 miles , 14 km
Cloud details: Overcast 400 ft
2018/12/14 07:15 KPBF 140715Z AUTO 12012G18KT 9SM -RA OVC004 13/12 A2979 RMK AO2 P0001 T01330122
KSRC - Searcy, Arkansas
Updated: Fri, Dec-Fri-2018 12:56am
Light rain, Mist, Overcast
Light rain, Mist, Overcast
 Wind from ENE
Wind: ENE 8 mph , 13 km/h
Temperature: 54°F , 12°C
Dew Point: 54°F , 12°C
Humidity: 100%
Barometer: 29.85 inHg , 1010.8 hPa
Summary: Light rain, Mist
Clouds: Overcast
Visibility: 2 miles , 3 km
Cloud details: Overcast 300 ft
2018/12/14 06:56 KSRC 140656Z AUTO 07007KT 2SM -RA BR OVC003 12/12 A2985 RMK AO2 SLP119 P0001 T01170117
 
KRUE - Russellville, Arkansas
Updated: Fri, Dec-Fri-2018 12:53am
Overcast
Overcast
 Wind from ENE
Wind: ENE 9 mph , 15 km/h
Temperature: 55°F , 13°C
Dew Point: 52°F , 11°C
Humidity: 88%
Barometer: 29.80 inHg , 1009.1 hPa
Clouds: Overcast
Visibility: 10 miles , 16 km
Cloud details: Overcast 800 ft
2018/12/14 06:53 KRUE 140653Z AUTO 06008KT 10SM OVC008 13/11 A2980 RMK AO2 SLP088 T01280111
KCCA - Clinton, Arkansas
Updated: Fri, Dec-Fri-2018 12:55am
Overcast
Overcast
 Wind from calm
Wind: Calm
Temperature: 54°F , 12°C
Dew Point: 52°F , 11°C
Humidity: 94%
Barometer: 29.85 inHg , 1010.8 hPa
Clouds: Overcast
Visibility: 8 miles , 13 km
Cloud details: Mostly cloudy 1000 ft
Overcast 1500 ft
2018/12/14 06:55 KCCA 140655Z AUTO 00000KT 8SM BKN010 OVC015 12/11 A2985 RMK AO2
KLLQ - Monticello, Arkansas
Updated: Fri, Dec-Fri-2018 1:06am
Mist, Overcast
Mist, Overcast
 Wind from E
Wind: E 7 mph , 11 km/h
Temperature: 59°F , 15°C
Dew Point: 57°F , 14°C
Humidity: 94%
Barometer: 29.79 inHg , 1008.8 hPa
Summary: Mist
Clouds: Overcast
Visibility: 1 1/2 miles , 2 km
Cloud details: Overcast 200 ft
2018/12/14 07:06 KLLQ 140706Z AUTO 10006KT 1 1/2SM BR OVC002 15/14 A2979 RMK AO2 T01500139
 
KCDH - Camden, Arkansas
Updated: Fri, Dec-Fri-2018 1:15am
Overcast
Overcast
 Wind from E
Wind: E 7 mph , 11 km/h
Temperature: 59°F , 15°C
Dew Point: 57°F , 14°C
Humidity: 94%
Barometer: 29.73 inHg , 1006.8 hPa
Clouds: Overcast
Visibility: 8 miles , 13 km
Cloud details: Overcast 500 ft
2018/12/14 07:15 KCDH 140715Z AUTO 08006KT 8SM OVC005 15/14 A2973 RMK AO2
KM19 - Newport, Arkansas
Updated: Fri, Dec-Fri-2018 1:15am
Light rain, Mist, Overcast
Light rain, Mist, Overcast
 Wind from ENE
Wind: ENE 6 mph , 9 km/h
Temperature: 52°F , 11°C
Dew Point: 52°F , 11°C
Humidity: 100%
Barometer: 29.89 inHg , 1012.2 hPa
Summary: Light rain, Mist
Clouds: Overcast
Visibility: 2 1/2 miles , 2 km
Cloud details: Overcast 300 ft
2018/12/14 07:15 KM19 140715Z AUTO 06005KT 2 1/2SM -RA BR OVC003 11/11 A2989 RMK AO2 P0000
KDEQ - De Queen, Arkansas
Updated: Fri, Dec-Fri-2018 1:10am
Overcast
Overcast
 Wind from calm
Wind: Calm
Temperature: 55°F , 13°C
Dew Point: 55°F , 13°C
Humidity: 100%
Barometer: 29.73 inHg , 1006.8 hPa
Clouds: Overcast
Visibility: 10 miles , 16 km
Cloud details: Mostly cloudy 1300 ft
Mostly cloudy 2600 ft
Overcast 3100 ft
2018/12/14 07:10 KDEQ 140710Z AUTO 00000KT 10SM BKN013 BKN026 OVC031 13/13 A2973 RMK AO2 T01330133
 
KTXK - Texarkana, Arkansas
Updated: Thu, Dec-Thu-2018 9:53pm
NOT Current
Mist, Overcast
Mist, Overcast
 Wind from ENE
Wind: ENE 3 mph , 6 km/h
Temperature: 55°F , 13°C
Dew Point: 55°F , 13°C
Humidity: 100%
Barometer: 29.73 inHg , 1006.8 hPa
Summary: Mist
Clouds: Overcast
Visibility: 2 1/2 miles , 2 km
Cloud details: Overcast 200 ft
2018/12/14 03:53 KTXK 140353Z AUTO 06003KT 2 1/2SM BR OVC002 13/13 A2973 RMK RAE18
KELD - El Dorado, Arkansas
Updated: Fri, Dec-Fri-2018 12:53am
Overcast
Overcast
 Wind from E
Wind: E 6 mph , 9 km/h
Temperature: 59°F , 15°C
Dew Point: 59°F , 15°C
Humidity: 100%
Barometer: 29.72 inHg , 1006.4 hPa
Clouds: Overcast
Visibility: 7 miles , 11 km
Cloud details: Overcast 600 ft
2018/12/14 06:53 KELD 140653Z AUTO 10005KT 7SM OVC006 15/15 A2972 RMK AO2 SLP063 T01500150 $
KCSM - Clinton, Oklahoma
Updated: Fri, Dec-Fri-2018 12:53am

 Wind from N
Wind: N 29 mph , 46 km/h, Gust: 38 mph , 61 km/h
Temperature: 36°F , 2°C
Wind Chill: 23°F , -5°C
Dew Point: 21°F , -6°C
Humidity: 56%
Barometer: 30.08 inHg , 1018.6 hPa
Visibility: 10 miles , 16 km
2018/12/14 06:53 KCSM 140653Z 35025G33KT 10SM 02/M06 A3008 RMK AO2 PK WND 35036/0624 SLP191 T00221056 $
 
KHBR - Hobart, Oklahoma
Updated: Fri, Dec-Fri-2018 12:53am
Mostly cloudy
Mostly cloudy
 Wind from N
Wind: N 30 mph , 48 km/h, Gust: 38 mph , 61 km/h
Temperature: 39°F , 4°C
Wind Chill: 27°F , -3°C
Dew Point: 25°F , -4°C
Humidity: 56%
Barometer: 30.04 inHg , 1017.3 hPa
Clouds: Mostly cloudy
Visibility: 10 miles , 16 km
Cloud details: Mostly cloudy 3500 ft
2018/12/14 06:53 KHBR 140653Z AUTO 01026G33KT 10SM BKN035 04/M04 A3004 RMK AO2 PK WND 02038/0615 SLP176 T00441039
KLTS - Altus Afb, Oklahoma
Updated: Fri, Dec-Fri-2018 1:11am
Mostly cloudy
Mostly cloudy
 Wind from N
Wind: N 25 mph , 41 km/h, Gust: 36 mph , 57 km/h
Temperature: 41°F , 5°C
Wind Chill: 31°F , -1°C
Dew Point: 19°F , -7°C
Humidity: 42%
Barometer: 30.05 inHg , 1017.6 hPa
Clouds: Mostly cloudy
Visibility: 10 miles , 16 km
Cloud details: Mostly cloudy 3400 ft
Mostly cloudy 4100 ft
Mostly cloudy 19000 ft
2018/12/14 07:11 KLTS 140711Z 36022G31KT 10SM BKN034 BKN041 BKN190 05/M07 A3005 RMK AO2A SLP180 $
KFSI - Fort Sill, Oklahoma
Updated: Fri, Dec-Fri-2018 12:56am
Overcast
Overcast
 Wind from N
Wind: N 25 mph , 41 km/h, Gust: 37 mph , 59 km/h
Temperature: 41°F , 5°C
Wind Chill: 31°F , -1°C
Dew Point: 36°F , 2°C
Humidity: 81%
Barometer: 29.96 inHg , 1014.6 hPa
Clouds: Overcast
Visibility: 10 miles , 16 km
Cloud details: Overcast 2300 ft
2018/12/14 06:56 KFSI 140656Z AUTO 36022G32KT 10SM OVC023 05/02 A2996 RMK AO2 PK WND 36034/12 SLP148 T00470019 $
 
KGAG - Gage, Oklahoma
Updated: Fri, Dec-Fri-2018 12:53am
Clear
Clear
 Wind from N
Wind: N 23 mph , 37 km/h, Gust: 26 mph , 43 km/h
Temperature: 34°F , 1°C
Wind Chill: 22°F , -6°C
Dew Point: 19°F , -7°C
Humidity: 56%
Barometer: 30.18 inHg , 1022 hPa
Clouds: Clear
Visibility: 10 miles , 16 km
2018/12/14 06:53 KGAG 140653Z AUTO 35020G23KT 10SM CLR 01/M07 A3018 RMK AO2 SLP226 T00111067
KWWR - Woodward, Oklahoma
Updated: Fri, Dec-Fri-2018 12:55am
Clear
Clear
 Wind from NNW
Wind: NNW 22 mph , 35 km/h, Gust: 29 mph , 46 km/h
Temperature: 32°F , 0°C
Wind Chill: 19°F , -7°C
Dew Point: 19°F , -7°C
Humidity: 60%
Barometer: 30.20 inHg , 1022.7 hPa
Clouds: Clear
Visibility: 10 miles , 16 km
2018/12/14 06:55 KWWR 140655Z AUTO 34019G25KT 10SM CLR 00/M07 A3020 RMK AO2
KLAW - Lawton, Oklahoma
Updated: Fri, Dec-Fri-2018 12:53am
Overcast
Overcast
 Wind from N
Wind: N 25 mph , 41 km/h, Gust: 39 mph , 63 km/h
Temperature: 43°F , 6°C
Wind Chill: 33°F , 1°C
Dew Point: 34°F , 1°C
Humidity: 71%
Barometer: 29.97 inHg , 1014.9 hPa
Clouds: Overcast
Visibility: 10 miles , 16 km
Cloud details: Overcast 2500 ft
2018/12/14 06:53 KLAW 140653Z AUTO 35022G34KT 10SM OVC025 06/01 A2997 RMK AO2 PK WND 36037/0641 SLP153 T00560011
 
KOKC - Oklahoma City, Oklahoma
Updated: Fri, Dec-Fri-2018 12:52am
Light rain, Overcast
Light rain, Overcast
 Wind from N
Wind: N 28 mph , 44 km/h, Gust: 35 mph , 56 km/h
Temperature: 39°F , 4°C
Wind Chill: 27°F , -3°C
Dew Point: 36°F , 2°C
Humidity: 87%
Barometer: 29.97 inHg , 1014.9 hPa
Summary: Light rain
Clouds: Overcast
Visibility: 9 miles , 14 km
Cloud details: Overcast 1500 ft
2018/12/14 06:52 KOKC 140652Z 36024G30KT 9SM -RA OVC015 04/02 A2997 RMK AO2 PK WND 35031/0615 RAE28B45SNB28E45 SLP153 P0000 T00390017 $
KEND - Enid/Vance Afb, Oklahoma
Updated: Fri, Dec-Fri-2018 12:56am
Overcast
Overcast
 Wind from N
Wind: N 25 mph , 41 km/h, Gust: 36 mph , 57 km/h
Temperature: 37°F , 3°C
Wind Chill: 25°F , -4°C
Dew Point: 32°F , 0°C
Humidity: 81%
Barometer: 30.06 inHg , 1017.9 hPa
Clouds: Overcast
Visibility: 10 miles , 16 km
Cloud details: Overcast 1600 ft
2018/12/14 06:56 KEND 140656Z AUTO 35022G31KT 10SM OVC016 03/00 A3006 RMK AO2 PK WND 36037/35 SLP187 T00301005 VISNO RWY35C $
KFDR - Frederick/Altus, Oklahoma
Updated: Fri, Dec-Fri-2018 1:00am
Overcast
Overcast
 Wind from N
Wind: N 33 mph , 54 km/h, Gust: 41 mph , 67 km/h
Temperature: 41°F , 5°C
Wind Chill: 29°F , -2°C
Dew Point: 30°F , -1°C
Humidity: 66%
Barometer: 29.98 inHg , 1015.2 hPa
Clouds: Overcast
Visibility: 10 miles , 16 km
Cloud details: Mostly cloudy 2900 ft
Overcast 4800 ft
2018/12/14 07:00 KFDR 140700Z AUTO 35029G36KT 10SM BKN029 OVC048 05/M01 A2998 RMK AO2 PK WND 35036/0655 T00501011 $
 
KOUN - Norman, Oklahoma
Updated: Fri, Dec-Fri-2018 12:55am
Overcast
Overcast
 Wind from N
Wind: N 22 mph , 35 km/h, Gust: 29 mph , 46 km/h
Temperature: 39°F , 4°C
Wind Chill: 29°F , -2°C
Dew Point: 36°F , 2°C
Humidity: 87%
Barometer: 29.94 inHg , 1013.9 hPa
Clouds: Overcast
Visibility: 7 miles , 11 km
Cloud details: Overcast 1100 ft
2018/12/14 06:55 KOUN 140655Z AUTO 35019G25KT 7SM OVC011 04/02 A2994 RMK AO2 T00390025
KTIK - Tinker Afb, Oklahoma
Updated: Fri, Dec-Fri-2018 12:56am
Light drizzle, Overcast
Light drizzle, Overcast
 Wind from N
Wind: N 24 mph , 39 km/h
Temperature: 39°F , 4°C
Wind Chill: 28°F , -2°C
Dew Point: 37°F , 3°C
Humidity: 93%
Barometer: 29.95 inHg , 1014.2 hPa
Summary: Light Drizzle
Clouds: Overcast
Visibility: 10 miles , 16 km
Cloud details: Overcast 1200 ft
2018/12/14 06:56 KTIK 140656Z 36021KT 10SM -DZ OVC012 04/03 A2995 RMK AO2A PK WND 35027/40 RAE41DZB41 CIG 011 RWY13 SLP156 P0001 T00370030
KGOK - Guthrie, Oklahoma
Updated: Fri, Dec-Fri-2018 12:53am
Overcast
Overcast
 Wind from N
Wind: N 14 mph , 22 km/h, Gust: 24 mph , 39 km/h
Temperature: 39°F , 4°C
Wind Chill: 31°F , -1°C
Dew Point: 34°F , 1°C
Humidity: 81%
Barometer: 30.01 inHg , 1016.3 hPa
Clouds: Overcast
Visibility: 10 miles , 16 km
Cloud details: Overcast 1800 ft
2018/12/14 06:53 KGOK 140653Z AUTO 36012G21KT 10SM OVC018 04/01 A3001 RMK AO2 PK WND 01026/0622 SLP170 T00440011
 
KSNL - Shawnee, Oklahoma
Updated: Fri, Dec-Fri-2018 12:55am
Light rain, Overcast
Light rain, Overcast
 Wind from N
Wind: N 20 mph , 31 km/h, Gust: 25 mph , 41 km/h
Temperature: 37°F , 3°C
Wind Chill: 27°F , -3°C
Dew Point: 37°F , 3°C
Humidity: 100%
Barometer: 29.95 inHg , 1014.2 hPa
Summary: Light rain
Clouds: Overcast
Visibility: 7 miles , 11 km
Cloud details: Overcast 800 ft
2018/12/14 06:55 KSNL 140655Z AUTO 36017G22KT 7SM -RA OVC008 03/03 A2995 RMK AO2 P0004 T00330025
KCQB - Chandler, Oklahoma
Updated: Fri, Dec-Fri-2018 12:50am
Rain, Mist, Overcast
Rain, Mist, Overcast
 Wind from N
Wind: N 17 mph , 28 km/h, Gust: 24 mph , 39 km/h
Temperature: 39°F , 4°C
Wind Chill: 30°F , -1°C
Dew Point: 37°F , 3°C
Humidity: 93%
Barometer: 29.97 inHg , 1014.9 hPa
Summary: Rain, Mist
Clouds: Overcast
Visibility: 4 miles , 6 km
Cloud details: Overcast 1400 ft
2018/12/14 06:50 KCQB 140650Z AUTO 36015G21KT 4SM RA BR OVC014 04/03 A2997 RMK AO2 P0001 T00370028
KPVJ - Pauls Valley, Oklahoma
Updated: Fri, Dec-Fri-2018 1:15am
Light rain, Overcast
Light rain, Overcast
 Wind from N
Wind: N 18 mph , 30 km/h, Gust: 28 mph , 44 km/h
Temperature: 39°F , 4°C
Wind Chill: 30°F , -1°C
Dew Point: 39°F , 4°C
Humidity: 100%
Barometer: 29.90 inHg , 1012.5 hPa
Summary: Light rain
Clouds: Overcast
Visibility: 10 miles , 16 km
Cloud details: Overcast 1000 ft
2018/12/14 07:15 KPVJ 140715Z AUTO 36016G24KT 10SM -RA OVC010 04/04 A2990 RMK AO2 T00420042
 
KEND - Enid/Vance Afb, Oklahoma
Updated: Fri, Dec-Fri-2018 12:56am
Overcast
Overcast
 Wind from N
Wind: N 25 mph , 41 km/h, Gust: 36 mph , 57 km/h
Temperature: 37°F , 3°C
Wind Chill: 25°F , -4°C
Dew Point: 32°F , 0°C
Humidity: 81%
Barometer: 30.06 inHg , 1017.9 hPa
Clouds: Overcast
Visibility: 10 miles , 16 km
Cloud details: Overcast 1600 ft
2018/12/14 06:56 KEND 140656Z AUTO 35022G31KT 10SM OVC016 03/00 A3006 RMK AO2 PK WND 36037/35 SLP187 T00301005 VISNO RWY35C $
KSWO - Stillwater, Oklahoma
Updated: Fri, Dec-Fri-2018 12:53am
Overcast
Overcast
 Wind from N
Wind: N 21 mph , 33 km/h, Gust: 30 mph , 48 km/h
Temperature: 41°F , 5°C
Wind Chill: 32°F , 0°C
Barometer: 30.01 inHg , 1016.3 hPa
Clouds: Overcast
Visibility: 10 miles , 16 km
Cloud details: Overcast 1700 ft
2018/12/14 06:53 KSWO 140653Z AUTO 36018G26KT 10SM OVC017 05/ A3001 RMK AO2 PK WND 36026/0649 SLP163 T0050 $
KFSI - Fort Sill, Oklahoma
Updated: Fri, Dec-Fri-2018 12:56am
Overcast
Overcast
 Wind from N
Wind: N 25 mph , 41 km/h, Gust: 37 mph , 59 km/h
Temperature: 41°F , 5°C
Wind Chill: 31°F , -1°C
Dew Point: 36°F , 2°C
Humidity: 81%
Barometer: 29.96 inHg , 1014.6 hPa
Clouds: Overcast
Visibility: 10 miles , 16 km
Cloud details: Overcast 2300 ft
2018/12/14 06:56 KFSI 140656Z AUTO 36022G32KT 10SM OVC023 05/02 A2996 RMK AO2 PK WND 36034/12 SLP148 T00470019 $
 
KDUC - Duncan, Oklahoma
Updated: Fri, Dec-Fri-2018 12:55am
Light drizzle, Overcast
Light drizzle, Overcast
 Wind from N
Wind: N 20 mph , 31 km/h, Gust: 37 mph , 59 km/h
Temperature: 39°F , 4°C
Wind Chill: 29°F , -2°C
Dew Point: 36°F , 2°C
Humidity: 87%
Barometer: 29.94 inHg , 1013.9 hPa
Summary: Light Drizzle
Clouds: Overcast
Visibility: 10 miles , 16 km
Cloud details: Overcast 1700 ft
2018/12/14 06:55 KDUC 140655Z AUTO 35017G32KT 10SM -DZ OVC017 04/02 A2994 RMK AO2 T00430022
KOKM - Okmulgee, Oklahoma
Updated: Fri, Dec-Fri-2018 1:15am
Light rain, Overcast
Light rain, Overcast
 Wind from N
Wind: N 18 mph , 30 km/h, Gust: 26 mph , 43 km/h
Temperature: 41°F , 5°C
Wind Chill: 32°F , 0°C
Dew Point: 41°F , 5°C
Humidity: 100%
Barometer: 29.93 inHg , 1013.5 hPa
Summary: Light rain
Clouds: Overcast
Visibility: 4 miles , 6 km
Cloud details: Overcast 700 ft
2018/12/14 07:15 KOKM 140715Z AUTO 36016G23KT 4SM -RA OVC007 05/05 A2993 RMK AO2 T00480048
KMLC - Mcalester, Oklahoma
Updated: Fri, Dec-Fri-2018 12:53am

 
2018/12/14 06:53 KMLC 140653Z AUTO RMK AO2 SLPNO PWINO FZRANO $
 
KMKO - Muskogee, Oklahoma
Updated: Fri, Dec-Fri-2018 12:53am
Light rain, Mist, Overcast
Light rain, Mist, Overcast
 Wind from N
Wind: N 21 mph , 33 km/h, Gust: 28 mph , 44 km/h
Temperature: 43°F , 6°C
Wind Chill: 34°F , 1°C
Dew Point: 43°F , 6°C
Humidity: 100%
Barometer: 29.92 inHg , 1013.2 hPa
Summary: Light rain, Mist
Clouds: Overcast
Visibility: 4 miles , 6 km
Cloud details: Overcast 700 ft
2018/12/14 06:53 KMKO 140653Z AUTO 36018G24KT 4SM -RA BR OVC007 06/06 A2992 RMK AO2 RAB12 SLP131 P0002 T00560056
KRVS - Tulsa, Oklahoma
Updated: Fri, Dec-Fri-2018 12:53am
Light rain, Overcast
Light rain, Overcast
 Wind from N
Wind: N 15 mph , 24 km/h, Gust: 25 mph , 41 km/h
Temperature: 41°F , 5°C
Wind Chill: 33°F , 1°C
Dew Point: 37°F , 3°C
Humidity: 87%
Barometer: 29.97 inHg , 1014.9 hPa
Summary: Light rain
Clouds: Overcast
Visibility: 7 miles , 11 km
Cloud details: Overcast 1200 ft
2018/12/14 06:53 KRVS 140653Z AUTO 36013G22KT 7SM -RA OVC012 05/03 A2997 RMK AO2 RAB49 SLP153 T00500028 PNO $
KGZL - Stigler, Oklahoma
Updated: Fri, Dec-Fri-2018 12:55am
Overcast
Overcast
 Wind from N
Wind: N 13 mph , 20 km/h
Temperature: 45°F , 7°C
Wind Chill: 39°F , 4°C
Dew Point: 45°F , 7°C
Humidity: 100%
Barometer: 29.87 inHg , 1011.5 hPa
Clouds: Overcast
Visibility: 10 miles , 16 km
Cloud details: Overcast 800 ft
2018/12/14 06:55 KGZL 140655Z AUTO 35011KT 10SM OVC008 07/07 A2987 RMK AO2 LTG DSNT S P0001
 
KADH - Ada, Oklahoma
Updated: Fri, Dec-Fri-2018 12:55am
Rain, Overcast
Rain, Overcast
 Wind from N
Wind: N 14 mph , 22 km/h, Gust: 22 mph , 35 km/h
Temperature: 39°F , 4°C
Wind Chill: 31°F , -1°C
Dew Point: 39°F , 4°C
Humidity: 100%
Barometer: 29.89 inHg , 1012.2 hPa
Summary: Rain
Clouds: Overcast
Visibility: 10 miles , 16 km
Cloud details: Mostly cloudy 800 ft
Overcast 1100 ft
2018/12/14 06:55 KADH 140655Z AUTO 36012G19KT 10SM RA BKN008 OVC011 04/04 A2989 RMK AO2 P0004
KAQR - Atoka, Oklahoma
Updated: Fri, Dec-Fri-2018 12:55am
Light rain, Overcast
Light rain, Overcast
 Wind from N
Wind: N 15 mph , 24 km/h, Gust: 22 mph , 35 km/h
Temperature: 41°F , 5°C
Wind Chill: 33°F , 1°C
Dew Point: 41°F , 5°C
Humidity: 100%
Barometer: 29.86 inHg , 1011.2 hPa
Summary: Light rain
Clouds: Overcast
Visibility: 10 miles , 16 km
Cloud details: Overcast 1000 ft
2018/12/14 06:55 KAQR 140655Z AUTO 01013G19KT 10SM -RA OVC010 05/05 A2986 RMK AO2 P0002
KJSV - Sallisaw, Oklahoma
Updated: Fri, Dec-Fri-2018 1:15am

 
2018/12/14 07:15 KJSV 140715Z AUTO RMK AO2 P TSNO PWINO
 
KTQH - Tahlequah, Oklahoma
Updated: Fri, Dec-Fri-2018 1:15am
Mist, Overcast
Mist, Overcast
 Wind from N
Wind: N 13 mph , 20 km/h, Gust: 21 mph , 33 km/h
Temperature: 41°F , 5°C
Wind Chill: 34°F , 1°C
Dew Point: 41°F , 5°C
Humidity: 100%
Barometer: 29.91 inHg , 1012.9 hPa
Summary: Mist
Clouds: Overcast
Visibility: 5 miles , 8 km
Cloud details: Overcast 600 ft
2018/12/14 07:15 KTQH 140715Z AUTO 01011G18KT 5SM BR OVC006 05/05 A2991 RMK AO2
KGCM - Claremore, Oklahoma
Updated: Fri, Dec-Fri-2018 1:15am
Mist, Overcast
Mist, Overcast
 Wind from N
Wind: N 15 mph , 24 km/h, Gust: 24 mph , 39 km/h
Temperature: 39°F , 4°C
Wind Chill: 31°F , -1°C
Dew Point: 37°F , 3°C
Humidity: 93%
Barometer: 29.97 inHg , 1014.9 hPa
Summary: Mist
Clouds: Overcast
Visibility: 4 miles , 6 km
Cloud details: Overcast 700 ft
2018/12/14 07:15 KGCM 140715Z AUTO 01013G21KT 4SM BR OVC007 04/03 A2997 RMK AO2 TSNO
KRKR - Poteau, Oklahoma
Updated: Fri, Dec-Fri-2018 1:15am
Light drizzle, Overcast
Light drizzle, Overcast
 Wind from NNW
Wind: NNW 10 mph , 17 km/h, Gust: 16 mph , 26 km/h
Temperature: 50°F , 10°C
Wind Chill: 46°F , 8°C
Dew Point: 48°F , 9°C
Humidity: 94%
Barometer: 29.82 inHg , 1009.8 hPa
Summary: Light Drizzle
Clouds: Overcast
Visibility: 5 miles , 8 km
Cloud details: Partly cloudy 800 ft
Overcast 1700 ft
2018/12/14 07:15 KRKR 140715Z AUTO 34009G14KT 5SM -DZ SCT008 OVC017 10/09 A2982 RMK AO2 P0001
 
KGMJ - Grove, Oklahoma
Updated: Fri, Dec-Fri-2018 1:15am
Overcast
Overcast
 Wind from N
Wind: N 9 mph , 15 km/h
Temperature: 43°F , 6°C
Wind Chill: 38°F , 3°C
Dew Point: 41°F , 5°C
Humidity: 93%
Barometer: 29.96 inHg , 1014.6 hPa
Clouds: Overcast
Visibility: 7 miles , 11 km
Cloud details: Overcast 800 ft
2018/12/14 07:15 KGMJ 140715Z AUTO 01008KT 7SM OVC008 06/05 A2996 RMK AO2
K4O4 - Idabel, Oklahoma
Updated: Fri, Dec-Fri-2018 1:15am
Overcast
Overcast
 Wind from calm
Wind: Calm
Temperature: 54°F , 12°C
Dew Point: 52°F , 11°C
Humidity: 94%
Barometer: 29.75 inHg , 1007.5 hPa
Clouds: Overcast
Visibility: 10 miles , 16 km
Cloud details: Overcast 400 ft
2018/12/14 07:15 K4O4 140715Z AUTO 00000KT 10SM OVC004 12/11 A2975 RMK AO2
KHHW - Hugo, Oklahoma
Updated: Fri, Dec-Fri-2018 12:55am
Overcast
Overcast
 Wind from N
Wind: N 15 mph , 24 km/h, Gust: 22 mph , 35 km/h
Temperature: 46°F , 8°C
Wind Chill: 40°F , 4°C
Dew Point: 45°F , 7°C
Humidity: 93%
Barometer: 29.78 inHg , 1008.5 hPa
Clouds: Overcast
Visibility: 10 miles , 16 km
Cloud details: Overcast 800 ft
2018/12/14 06:55 KHHW 140655Z AUTO 36013G19KT 10SM OVC008 08/07 A2978 RMK AO2 T00810065
 
KDUA - Durant, Oklahoma
Updated: Fri, Dec-Fri-2018 1:15am
Light rain, Overcast
Light rain, Overcast
 Wind from N
Wind: N 25 mph , 41 km/h, Gust: 35 mph , 56 km/h
Temperature: 43°F , 6°C
Wind Chill: 33°F , 1°C
Dew Point: 43°F , 6°C
Humidity: 100%
Barometer: 29.83 inHg , 1010.2 hPa
Summary: Light rain
Clouds: Overcast
Visibility: 5 miles , 8 km
Cloud details: Overcast 800 ft
2018/12/14 07:15 KDUA 140715Z AUTO 01022G30KT 280V030 5SM -RA OVC008 06/06 A2983 RMK AO2
KSTJ - St. Joseph, Missouri
Updated: Fri, Dec-Fri-2018 12:53am
Overcast
Overcast
 Wind from N
Wind: N 17 mph , 28 km/h, Gust: 22 mph , 35 km/h
Temperature: 34°F , 1°C
Wind Chill: 23°F , -5°C
Dew Point: 34°F , 1°C
Humidity: 100%
Barometer: 30.16 inHg , 1021.3 hPa
Clouds: Overcast
Visibility: 8 miles , 13 km
Cloud details: Overcast 1100 ft
2018/12/14 06:53 KSTJ 140653Z 01015G19KT 8SM OVC011 01/01 A3016 RMK AO2 SLP220 T00110006
KMCI - Kansas City/Intl, Missouri
Updated: Fri, Dec-Fri-2018 12:53am
Mist, Overcast
Mist, Overcast
 Wind from N
Wind: N 15 mph , 24 km/h
Temperature: 34°F , 1°C
Wind Chill: 24°F , -4°C
Dew Point: 30°F , -1°C
Humidity: 87%
Barometer: 30.12 inHg , 1020 hPa
Summary: Mist
Clouds: Overcast
Visibility: 6 miles , 10 km
Cloud details: Overcast 800 ft
2018/12/14 06:53 KMCI 140653Z 36013KT 6SM BR OVC008 01/M01 A3012 RMK AO2 SLP205 T00111011
 
KMKC - Kansas City/Dntn, Missouri
Updated: Fri, Dec-Fri-2018 12:54am
Overcast
Overcast
 Wind from NNW
Wind: NNW 10 mph , 17 km/h
Temperature: 36°F , 2°C
Wind Chill: 29°F , -2°C
Dew Point: 30°F , -1°C
Humidity: 81%
Barometer: 30.12 inHg , 1020 hPa
Clouds: Overcast
Visibility: 8 miles , 13 km
Cloud details: Overcast 1200 ft
2018/12/14 06:54 KMKC 140654Z 34009KT 8SM OVC012 02/M01 A3012 RMK AO2 SLP202 T00221011
KCDJ - Chillicothe, Missouri
Updated: Fri, Dec-Fri-2018 12:52am

 Wind from N
Wind: N 7 mph , 11 km/h
Temperature: 36°F , 2°C
Wind Chill: 30°F , -1°C
Dew Point: 34°F , 1°C
Humidity: 93%
Barometer: 30.12 inHg , 1020 hPa
2018/12/14 06:52 KCDJ 140652Z AUTO 35006KT 02/01 A3012 RMK AO1 SLP210 T00220011
KIRK - Kirksville, Missouri
Updated: Fri, Dec-Fri-2018 1:07am
Mist, Overcast
Mist, Overcast
 Wind from N
Wind: N 10 mph , 17 km/h
Temperature: 36°F , 2°C
Wind Chill: 29°F , -2°C
Dew Point: 36°F , 2°C
Humidity: 100%
Barometer: 30.10 inHg , 1019.3 hPa
Summary: Mist
Clouds: Overcast
Visibility: 2 miles , 3 km
Cloud details: Overcast 400 ft
2018/12/14 07:07 KIRK 140707Z AUTO 01009KT 2SM BR OVC004 02/02 A3010 RMK AO2 T00220022
 
KSZL - Whiteman Afb, Missouri
Updated: Fri, Dec-Fri-2018 12:56am
Mist, Overcast
Mist, Overcast
 Wind from N
Wind: N 14 mph , 22 km/h
Temperature: 37°F , 3°C
Wind Chill: 28°F , -2°C
Dew Point: 37°F , 3°C
Humidity: 100%
Barometer: 30.02 inHg , 1016.6 hPa
Summary: Mist
Clouds: Overcast
Visibility: 3 miles , 5 km
Cloud details: Overcast 300 ft
2018/12/14 06:56 KSZL 140656Z 36012KT 3SM BR OVC003 03/03 A3002 RMK AO2A SLP172 T00270027 $
KDMO - Sedalia, Missouri
Updated: Fri, Dec-Fri-2018 12:53am
Mist, Overcast
Mist, Overcast
 Wind from N
Wind: N 14 mph , 22 km/h
Temperature: 37°F , 3°C
Wind Chill: 28°F , -2°C
Dew Point: 37°F , 3°C
Humidity: 100%
Barometer: 30.05 inHg , 1017.6 hPa
Summary: Mist
Clouds: Overcast
Visibility: 4 miles , 6 km
Cloud details: Overcast 400 ft
2018/12/14 06:53 KDMO 140653Z AUTO 35012KT 4SM BR OVC004 03/03 A3005 RMK AO2 CIG 002V006 SLP179 T00280028 $
KGLY - Clinton, Missouri
Updated: Fri, Dec-Fri-2018 12:55am
Mist, Overcast
Mist, Overcast
 Wind from N
Wind: N 12 mph , 19 km/h
Temperature: 37°F , 3°C
Wind Chill: 29°F , -2°C
Dew Point: 37°F , 3°C
Humidity: 100%
Barometer: 30.04 inHg , 1017.3 hPa
Summary: Mist
Clouds: Overcast
Visibility: 4 miles , 6 km
Cloud details: Overcast 400 ft
2018/12/14 06:55 KGLY 140655Z AUTO 01010KT 4SM BR OVC004 03/03 A3004 RMK AO2
 
KCOU - Columbia, Missouri
Updated: Fri, Dec-Fri-2018 12:54am
Overcast
Overcast
 Wind from NNE
Wind: NNE 7 mph , 11 km/h
Temperature: 41°F , 5°C
Wind Chill: 36°F , 2°C
Dew Point: 37°F , 3°C
Humidity: 87%
Barometer: 30.02 inHg , 1016.6 hPa
Clouds: Overcast
Visibility: 10 miles , 16 km
Cloud details: Overcast 400 ft
2018/12/14 06:54 KCOU 140654Z AUTO 02006KT 10SM OVC004 05/03 A3002 RMK AO2 RAE07 SLP170 P0000 T00500033
KJEF - Jefferson City, Missouri
Updated: Fri, Dec-Fri-2018 12:53am
Overcast
Overcast
 Wind from N
Wind: N 6 mph , 9 km/h
Temperature: 43°F , 6°C
Wind Chill: 39°F , 4°C
Dew Point: 41°F , 5°C
Humidity: 93%
Barometer: 30.02 inHg , 1016.6 hPa
Clouds: Overcast
Visibility: 10 miles , 16 km
Cloud details: Overcast 700 ft
2018/12/14 06:53 KJEF 140653Z AUTO 36005KT 10SM OVC007 06/05 A3002 RMK AO2 SLP158 T00610050
KVIH - Vichy/Rolla, Missouri
Updated: Fri, Dec-Fri-2018 12:53am
Mist, Overcast
Mist, Overcast
 Wind from NNE
Wind: NNE 8 mph , 13 km/h
Temperature: 46°F , 8°C
Wind Chill: 42°F , 6°C
Dew Point: 45°F , 7°C
Humidity: 93%
Barometer: 29.98 inHg , 1015.2 hPa
Summary: Mist
Clouds: Overcast
Visibility: 5 miles , 8 km
Cloud details: Overcast 200 ft
2018/12/14 06:53 KVIH 140653Z AUTO 02007KT 5SM BR OVC002 08/07 A2998 RMK AO2 RAE0554B14E42 SLP154 P0001 T00830072
 
KTBN - Fort Leonard Wood, Missouri
Updated: Fri, Dec-Fri-2018 12:56am
Clear
Clear
 Wind from N
Wind: N 6 mph , 9 km/h
Temperature: 48°F , 9°C
Wind Chill: 45°F , 7°C
Dew Point: 48°F , 9°C
Humidity: 100%
Barometer: 29.96 inHg , 1014.6 hPa
Clouds: Clear
Visibility: 7 miles , 11 km
2018/12/14 06:56 KTBN 140656Z AUTO 36005KT 7SM CLR 09/09 A2996 RMK AO2 RAE05DZB05E25 SLP150 P0001 T00850085 $
KJLN - Joplin, Missouri
Updated: Fri, Dec-Fri-2018 12:53am
Mist, Overcast
Mist, Overcast
 Wind from N
Wind: N 17 mph , 28 km/h, Gust: 25 mph , 41 km/h
Temperature: 39°F , 4°C
Wind Chill: 30°F , -1°C
Dew Point: 39°F , 4°C
Humidity: 100%
Barometer: 29.99 inHg , 1015.6 hPa
Summary: Mist
Clouds: Overcast
Visibility: 3 miles , 5 km
Cloud details: Overcast 400 ft
2018/12/14 06:53 KJLN 140653Z AUTO 01015G22KT 3SM BR OVC004 04/04 A2999 RMK AO2 SLP157 T00440039
KHFJ - Monett, Missouri
Updated: Fri, Dec-Fri-2018 1:15am
Mist, Overcast
Mist, Overcast
 Wind from NNE
Wind: NNE 15 mph , 24 km/h, Gust: 21 mph , 33 km/h
Temperature: 41°F , 5°C
Wind Chill: 33°F , 1°C
Dew Point: 41°F , 5°C
Humidity: 100%
Barometer: 29.93 inHg , 1013.5 hPa
Summary: Mist
Clouds: Overcast
Visibility: 1 mile , 2 km
Cloud details: Overcast 200 ft
2018/12/14 07:15 KHFJ 140715Z AUTO 02013G18KT 1SM BR OVC002 05/05 A2993 RMK AO2
 
KSGF - Springfield, Missouri
Updated: Fri, Dec-Fri-2018 12:52am
Fog, Overcast
Fog, Overcast
 Wind from N
Wind: N 12 mph , 19 km/h
Temperature: 45°F , 7°C
Wind Chill: 39°F , 4°C
Dew Point: 43°F , 6°C
Humidity: 93%
Barometer: 29.94 inHg , 1013.9 hPa
Summary: Fog
Clouds: Overcast
Visibility: 1/2 mile , 2 km
Cloud details: Overcast 200 ft
2018/12/14 06:52 KSGF 140652Z 01010KT 1/2SM FG VV002 07/06 A2994 RMK AO2 SLP140 T00670056
KBBG - Branson, Missouri
Updated: Fri, Dec-Fri-2018 12:55am
Light rain, Overcast
Light rain, Overcast
 Wind from calm
Wind: Calm
Temperature: 48°F , 9°C
Dew Point: 48°F , 9°C
Humidity: 100%
Barometer: 29.90 inHg , 1012.5 hPa
Summary: Light rain
Clouds: Overcast
Visibility: 1 1/2 miles , 2 km
Cloud details: Overcast 200 ft
2018/12/14 06:55 KBBG 140655Z AUTO 00000KT 1 1/2SM -RA OVC002 09/09 A2990 RMK AO2 P0001
KUNO - West Plains, Missouri
Updated: Fri, Dec-Fri-2018 12:53am
Light rain, Mist, Overcast
Light rain, Mist, Overcast
 Wind from ENE
Wind: ENE 8 mph , 13 km/h
Temperature: 52°F , 11°C
Dew Point: 50°F , 10°C
Humidity: 94%
Barometer: 29.92 inHg , 1013.2 hPa
Summary: Light rain, Mist
Clouds: Overcast
Visibility: 4 miles , 6 km
Cloud details: Mostly cloudy 500 ft
Overcast 900 ft
2018/12/14 06:53 KUNO 140653Z AUTO 06007KT 4SM -RA BR BKN005 OVC009 11/10 A2992 RMK AO2 SLP130 P0007 T01060100
 
KFAM - Farmington, Missouri
Updated: Fri, Dec-Fri-2018 12:56am
Light rain, Overcast
Light rain, Overcast
 Wind from ENE
Wind: ENE 5 mph , 7 km/h
Temperature: 48°F , 9°C
Wind Chill: 46°F , 8°C
Dew Point: 48°F , 9°C
Humidity: 100%
Barometer: 29.98 inHg , 1015.2 hPa
Summary: Light rain
Clouds: Overcast
Visibility: 7 miles , 11 km
Cloud details: Overcast 2000 ft
2018/12/14 06:56 KFAM 140656Z AUTO 07004KT 7SM -RA OVC020 09/09 A2998 RMK AO2 SLP151 P0001 T00940089
KCGI - Cape Girardeau, Missouri
Updated: Fri, Dec-Fri-2018 1:14am
Rain, Mist, Overcast
Rain, Mist, Overcast
 Wind from E
Wind: E 8 mph , 13 km/h
Temperature: 50°F , 10°C
Wind Chill: 47°F , 8°C
Dew Point: 48°F , 9°C
Humidity: 94%
Barometer: 29.97 inHg , 1014.9 hPa
Summary: Rain, Mist
Clouds: Overcast
Visibility: 4 miles , 6 km
Cloud details: Partly cloudy 2700 ft
Mostly cloudy 6000 ft
Overcast 7500 ft
2018/12/14 07:14 KCGI 140714Z AUTO 08007KT 4SM RA BR SCT027 BKN060 OVC075 10/09 A2997 RMK AO2 P0008 T01000089
KSTL - St. Louis, Missouri
Updated: Fri, Dec-Fri-2018 12:51am
Mist, Overcast
Mist, Overcast
 Wind from NNE
Wind: NNE 5 mph , 7 km/h
Temperature: 48°F , 9°C
Wind Chill: 46°F , 8°C
Dew Point: 48°F , 9°C
Humidity: 100%
Barometer: 30.02 inHg , 1016.6 hPa
Summary: Mist
Clouds: Overcast
Visibility: 5 miles , 8 km
Cloud details: Overcast 200 ft
2018/12/14 06:51 KSTL 140651Z 02004KT 5SM BR OVC002 09/09 A3002 RMK AO2 RAE27 SLP167 P0001 T00890089 $
 
KPOF - Popular Bluff, Missouri
Updated: Fri, Dec-Fri-2018 1:01am
Light rain, Mist, Overcast
Light rain, Mist, Overcast
 Wind from ENE
Wind: ENE 5 mph , 7 km/h
Temperature: 50°F , 10°C
Wind Chill: 48°F , 9°C
Dew Point: 50°F , 10°C
Humidity: 100%
Barometer: 29.95 inHg , 1014.2 hPa
Summary: Light rain, Mist
Clouds: Overcast
Visibility: 3 miles , 5 km
Cloud details: Mostly cloudy 800 ft
Overcast 1200 ft
2018/12/14 07:01 KPOF 140701Z AUTO 07004KT 3SM -RA BR BKN008 OVC012 10/10 A2995 RMK AO2 CIG 007V011 P0002 T01000100
KSET - St. Charles, Missouri
Updated: Fri, Dec-Fri-2018 12:54am
Light rain, Mist, Overcast
Light rain, Mist, Overcast
 Wind from NNE
Wind: NNE 5 mph , 7 km/h
Temperature: 46°F , 8°C
Wind Chill: 44°F , 7°C
Dew Point: 46°F , 8°C
Humidity: 100%
Barometer: 30.02 inHg , 1016.6 hPa
Summary: Light rain, Mist
Clouds: Overcast
Visibility: 6 miles , 10 km
Cloud details: Overcast 800 ft
2018/12/14 06:54 KSET 140654Z AUTO 02004KT 6SM -RA BR OVC008 08/08 A3002 RMK AO2 RAB0557 SLP165 P0002 T00830078
KGLD - Goodland, Kansas
Updated: Fri, Dec-Fri-2018 12:53am
Clear
Clear
 Wind from WSW
Wind: WSW 7 mph , 11 km/h
Temperature: 16°F , -9°C
Wind Chill: 6°F , -14°C
Dew Point: 9°F , -13°C
Humidity: 73%
Barometer: 30.26 inHg , 1024.7 hPa
Clouds: Clear
Visibility: 10 miles , 16 km
2018/12/14 06:53 KGLD 140653Z AUTO 25006KT 10SM CLR M09/M13 A3026 RMK AO2 SLP270 T10891128 400671094
 
KHLC - Hill City, Kansas
Updated: Fri, Dec-Fri-2018 12:53am
Clear
Clear
 Wind from N
Wind: N 13 mph , 20 km/h
Temperature: 25°F , -4°C
Wind Chill: 13°F , -11°C
Dew Point: 19°F , -7°C
Humidity: 80%
Barometer: 30.28 inHg , 1025.4 hPa
Clouds: Clear
Visibility: 10 miles , 16 km
2018/12/14 06:53 KHLC 140653Z AUTO 35011KT 10SM CLR M04/M07 A3028 RMK AO2 SLP269 T10391072
KHYS - Hays Muni, Kansas
Updated: Fri, Dec-Fri-2018 12:56am
Clear
Clear
 Wind from NNW
Wind: NNW 15 mph , 24 km/h
Temperature: 30°F , -1°C
Wind Chill: 19°F , -7°C
Dew Point: 23°F , -5°C
Humidity: 75%
Barometer: 30.25 inHg , 1024.4 hPa
Clouds: Clear
Visibility: 10 miles , 16 km
2018/12/14 06:56 KHYS 140656Z AUTO 34013KT 10SM CLR M01/M05 A3025 RMK AO2 SLP259 T10111050 FZRANO
KRSL - Russell, Kansas
Updated: Fri, Dec-Fri-2018 12:53am
Clear
Clear
 Wind from NNW
Wind: NNW 13 mph , 20 km/h
Temperature: 30°F , -1°C
Wind Chill: 20°F , -7°C
Dew Point: 25°F , -4°C
Humidity: 80%
Barometer: 30.24 inHg , 1024 hPa
Clouds: Clear
Visibility: 10 miles , 16 km
2018/12/14 06:53 KRSL 140653Z AUTO 34011KT 10SM CLR M01/M04 A3024 RMK AO2 SLP254 T10111039
 
KGBD - Great Bend, Kansas
Updated: Fri, Dec-Fri-2018 12:56am
Clear
Clear
 Wind from NNW
Wind: NNW 16 mph , 26 km/h
Temperature: 30°F , -1°C
Wind Chill: 19°F , -7°C
Dew Point: 25°F , -4°C
Humidity: 80%
Barometer: 30.23 inHg , 1023.7 hPa
Clouds: Clear
Visibility: 10 miles , 16 km
2018/12/14 06:56 KGBD 140656Z AUTO 34014KT 10SM CLR M01/M04 A3023 RMK AO2 SLP248 T10061039 FZRANO
KDDC - Dodge City, Kansas
Updated: Fri, Dec-Fri-2018 12:52am
Clear
Clear
 Wind from N
Wind: N 13 mph , 20 km/h
Temperature: 28°F , -2°C
Wind Chill: 17°F , -8°C
Dew Point: 18°F , -8°C
Humidity: 64%
Barometer: 30.23 inHg , 1023.7 hPa
Clouds: Clear
Visibility: 10 miles , 16 km
2018/12/14 06:52 KDDC 140652Z AUTO 35011KT 10SM CLR M02/M08 A3023 RMK AO2 SLP250 T10171083 $
KPTT - Pratt Indust, Kansas
Updated: Fri, Dec-Fri-2018 12:55am
Clear
Clear
 Wind from N
Wind: N 20 mph , 31 km/h
Temperature: 32°F , 0°C
Wind Chill: 20°F , -7°C
Dew Point: 23°F , -5°C
Humidity: 69%
Barometer: 30.19 inHg , 1022.4 hPa
Clouds: Clear
Visibility: 10 miles , 16 km
2018/12/14 06:55 KPTT 140655Z AUTO 35017KT 10SM CLR 00/M05 A3019 RMK AO2 T00001046
 
KSLN - Salina, Kansas
Updated: Fri, Dec-Fri-2018 12:53am
Clear
Clear
 Wind from NNW
Wind: NNW 14 mph , 22 km/h
Temperature: 32°F , 0°C
Wind Chill: 22°F , -6°C
Dew Point: 28°F , -2°C
Humidity: 87%
Barometer: 30.22 inHg , 1023.4 hPa
Clouds: Clear
Visibility: 10 miles , 16 km
2018/12/14 06:53 KSLN 140653Z AUTO 34012KT 10SM CLR 00/M02 A3022 RMK AO2 SLP240 T00001022
KHUT - Hutchinson, Kansas
Updated: Fri, Dec-Fri-2018 12:52am
Clear
Clear
 Wind from N
Wind: N 18 mph , 30 km/h, Gust: 31 mph , 50 km/h
Temperature: 34°F , 1°C
Wind Chill: 23°F , -5°C
Dew Point: 27°F , -3°C
Humidity: 75%
Barometer: 30.16 inHg , 1021.3 hPa
Clouds: Clear
Visibility: 10 miles , 16 km
2018/12/14 06:52 KHUT 140652Z AUTO 36016G27KT 10SM CLR 01/M03 A3016 RMK AO2 PK WND 36032/0624 SLP215 T00111028
KGCK - Garden City, Kansas
Updated: Fri, Dec-Fri-2018 12:54am
Clear
Clear
 Wind from NNW
Wind: NNW 14 mph , 22 km/h
Temperature: 21°F , -6°C
Wind Chill: 8°F , -13°C
Dew Point: 14°F , -10°C
Humidity: 74%
Barometer: 30.26 inHg , 1024.7 hPa
Clouds: Clear
Visibility: 10 miles , 16 km
2018/12/14 06:54 KGCK 140654Z AUTO 33012KT 10SM CLR M06/M10 A3026 RMK AO2 SLP266 T10611100
 
KP28 - Medicine Lodge, Kansas
Updated: Fri, Dec-Fri-2018 12:56am

 Wind from N
Wind: N 20 mph , 31 km/h, Gust: 30 mph , 48 km/h
Temperature: 34°F , 1°C
Wind Chill: 23°F , -5°C
Dew Point: 25°F , -4°C
Humidity: 70%
Barometer: 30.15 inHg , 1021 hPa
2018/12/14 06:56 KP28 140656Z AUTO 35017G26KT 01/M04 A3015 RMK AO1 PK WND 35031/0630 SLP219 T00111039
KICT - Wichita, Kansas
Updated: Fri, Dec-Fri-2018 12:53am
Overcast
Overcast
 Wind from N
Wind: N 21 mph , 33 km/h, Gust: 35 mph , 56 km/h
Temperature: 36°F , 2°C
Wind Chill: 25°F , -4°C
Dew Point: 30°F , -1°C
Humidity: 81%
Barometer: 30.13 inHg , 1020.3 hPa
Clouds: Overcast
Visibility: 10 miles , 16 km
Cloud details: Overcast 1200 ft
2018/12/14 06:53 KICT 140653Z 36018G30KT 10SM OVC012 02/M01 A3013 RMK AO2 PK WND 35030/0653 SLP210 T00221006 $
KRSL - Russell, Kansas
Updated: Fri, Dec-Fri-2018 12:53am
Clear
Clear
 Wind from NNW
Wind: NNW 13 mph , 20 km/h
Temperature: 30°F , -1°C
Wind Chill: 20°F , -7°C
Dew Point: 25°F , -4°C
Humidity: 80%
Barometer: 30.24 inHg , 1024 hPa
Clouds: Clear
Visibility: 10 miles , 16 km
2018/12/14 06:53 KRSL 140653Z AUTO 34011KT 10SM CLR M01/M04 A3024 RMK AO2 SLP254 T10111039
 
KMHK - Manhattan, Kansas
Updated: Fri, Dec-Fri-2018 12:52am
Overcast
Overcast
 Wind from N
Wind: N 6 mph , 9 km/h
Temperature: 36°F , 2°C
Wind Chill: 31°F , -1°C
Dew Point: 30°F , -1°C
Humidity: 81%
Barometer: 30.19 inHg , 1022.4 hPa
Clouds: Overcast
Visibility: 10 miles , 16 km
Cloud details: Overcast 1500 ft
2018/12/14 06:52 KMHK 140652Z AUTO 36005KT 10SM OVC015 02/M01 A3019 RMK AO2 SLP232 T00221011
KEMP - Emporia, Kansas
Updated: Fri, Dec-Fri-2018 12:53am
Mist, Overcast
Mist, Overcast
 Wind from N
Wind: N 14 mph , 22 km/h, Gust: 24 mph , 39 km/h
Temperature: 36°F , 2°C
Wind Chill: 27°F , -3°C
Dew Point: 34°F , 1°C
Humidity: 93%
Barometer: 30.12 inHg , 1020 hPa
Summary: Mist
Clouds: Overcast
Visibility: 6 miles , 10 km
Cloud details: Overcast 1000 ft
2018/12/14 06:53 KEMP 140653Z AUTO 36012G21KT 6SM BR OVC010 02/01 A3012 RMK AO2 SLP209 T00170006
KTOP - Topeka, Kansas
Updated: Fri, Dec-Fri-2018 12:53am
Overcast
Overcast
 Wind from N
Wind: N 13 mph , 20 km/h, Gust: 21 mph , 33 km/h
Temperature: 36°F , 2°C
Wind Chill: 27°F , -3°C
Dew Point: 30°F , -1°C
Humidity: 81%
Barometer: 30.15 inHg , 1021 hPa
Clouds: Overcast
Visibility: 10 miles , 16 km
Cloud details: Overcast 1000 ft
2018/12/14 06:53 KTOP 140653Z AUTO 36011G18KT 10SM OVC010 02/M01 A3015 RMK AO2 SLP217 T00221006
 
KCNU - Chanute, Kansas
Updated: Fri, Dec-Fri-2018 12:52am
Mist, Overcast
Mist, Overcast
 Wind from N
Wind: N 18 mph , 30 km/h, Gust: 30 mph , 48 km/h
Temperature: 37°F , 3°C
Wind Chill: 27°F , -3°C
Dew Point: 36°F , 2°C
Humidity: 93%
Barometer: 30.06 inHg , 1017.9 hPa
Summary: Mist
Clouds: Overcast
Visibility: 6 miles , 10 km
Cloud details: Overcast 800 ft
2018/12/14 06:52 KCNU 140652Z AUTO 01016G26KT 6SM BR OVC008 03/02 A3006 RMK AO2 PK WND 35027/0615 SLP182 T00280017
KLWC - Lawrence, Kansas
Updated: Fri, Dec-Fri-2018 12:52am
Mist, Overcast
Mist, Overcast
 Wind from N
Wind: N 12 mph , 19 km/h
Temperature: 36°F , 2°C
Wind Chill: 28°F , -2°C
Dew Point: 32°F , 0°C
Humidity: 87%
Barometer: 30.13 inHg , 1020.3 hPa
Summary: Mist
Clouds: Overcast
Visibility: 5 miles , 8 km
Cloud details: Overcast 700 ft
2018/12/14 06:52 KLWC 140652Z AUTO 35010KT 5SM BR OVC007 02/00 A3013 RMK AO2 SLP210 T00220000
KPPF - Parsons, Kansas
Updated: Fri, Dec-Fri-2018 12:52am
Overcast
Overcast
 Wind from N
Wind: N 16 mph , 26 km/h
Temperature: 39°F , 4°C
Wind Chill: 30°F , -1°C
Dew Point: 36°F , 2°C
Humidity: 87%
Barometer: 30.04 inHg , 1017.3 hPa
Clouds: Overcast
Cloud details: Overcast 1000 ft
2018/12/14 06:52 KPPF 140652Z AUTO 01014KT OVC010 04/02 A3004 RMK AO2 SLP176 T00390017
 
KIDP - Independence, Kansas
Updated: Fri, Dec-Fri-2018 12:55am
Overcast
Overcast
 Wind from N
Wind: N 22 mph , 35 km/h, Gust: 29 mph , 46 km/h
Temperature: 39°F , 4°C
Wind Chill: 29°F , -2°C
Dew Point: 36°F , 2°C
Humidity: 87%
Barometer: 30.04 inHg , 1017.3 hPa
Clouds: Overcast
Visibility: 10 miles , 16 km
Cloud details: Overcast 1100 ft
2018/12/14 06:55 KIDP 140655Z AUTO 36019G25KT 10SM OVC011 04/02 A3004 RMK AO2 T00360018
KOJC - Olathe, Kansas
Updated: Fri, Dec-Fri-2018 12:53am
Mist, Overcast
Mist, Overcast
 Wind from N
Wind: N 15 mph , 24 km/h
Temperature: 34°F , 1°C
Wind Chill: 24°F , -4°C
Dew Point: 32°F , 0°C
Humidity: 93%
Barometer: 30.09 inHg , 1019 hPa
Summary: Mist
Clouds: Overcast
Visibility: 5 miles , 8 km
Cloud details: Overcast 1000 ft
2018/12/14 06:53 KOJC 140653Z AUTO 36013KT 5SM BR OVC010 01/00 A3009 RMK AO2 SLP195 T00110000
KCFV - Coffeyville, Kansas
Updated: Fri, Dec-Fri-2018 12:52am
Mist, Overcast
Mist, Overcast
 Wind from N
Wind: N 16 mph , 26 km/h, Gust: 24 mph , 39 km/h
Temperature: 39°F , 4°C
Wind Chill: 30°F , -1°C
Dew Point: 36°F , 2°C
Humidity: 87%
Barometer: 30.02 inHg , 1016.6 hPa
Summary: Mist
Clouds: Overcast
Visibility: 5 miles , 8 km
Cloud details: Overcast 1100 ft
2018/12/14 06:52 KCFV 140652Z AUTO 36014G21KT 5SM BR OVC011 04/02 A3002 RMK AO2 SLP168 T00390022
 
KPTS - Pittsburg, Kansas
Updated: Fri, Dec-Fri-2018 12:55am
Mist, Overcast
Mist, Overcast
 Wind from N
Wind: N 12 mph , 19 km/h, Gust: 18 mph , 30 km/h
Temperature: 39°F , 4°C
Wind Chill: 32°F , 0°C
Dew Point: 37°F , 3°C
Humidity: 93%
Barometer: 30.01 inHg , 1016.3 hPa
Summary: Mist
Clouds: Overcast
Visibility: 5 miles , 8 km
Cloud details: Overcast 700 ft
2018/12/14 06:55 KPTS 140655Z AUTO 01010G16KT 5SM BR OVC007 04/03 A3001 RMK AO2 T00380030
KLGA - New York City, New York
Updated: Fri, Dec-Fri-2018 12:51am
Overcast
Overcast
 Wind from NE
Wind: NE 12 mph , 19 km/h
Temperature: 39°F , 4°C
Wind Chill: 32°F , 0°C
Dew Point: 36°F , 2°C
Humidity: 87%
Barometer: 30.47 inHg , 1031.8 hPa
Clouds: Overcast
Visibility: 10 miles , 16 km
Cloud details: Mostly cloudy 1600 ft
Overcast 2200 ft
2018/12/14 06:51 KLGA 140651Z 05010KT 10SM BKN016 OVC022 04/02 A3047 RMK AO2 SLP318 T00440022 $
KCLT - Charlotte, North Carolina
Updated: Fri, Dec-Fri-2018 12:52am
Overcast
Overcast
 Wind from N
Wind: N 10 mph , 17 km/h
Temperature: 45°F , 7°C
Wind Chill: 40°F , 4°C
Dew Point: 36°F , 2°C
Humidity: 71%
Barometer: 30.26 inHg , 1024.7 hPa
Clouds: Overcast
Visibility: 10 miles , 16 km
Cloud details: Overcast 4200 ft
2018/12/14 06:52 KCLT 140652Z 01009KT 10SM OVC042 07/02 A3026 RMK AO2 SLP247 T00720017
 
KATL - Atlanta, Georgia
Updated: Fri, Dec-Fri-2018 12:52am
Light rain, Overcast
Light rain, Overcast
 Wind from E
Wind: E 14 mph , 22 km/h
Temperature: 48°F , 9°C
Wind Chill: 42°F , 6°C
Dew Point: 39°F , 4°C
Humidity: 71%
Barometer: 30.11 inHg , 1019.6 hPa
Summary: Light rain
Clouds: Overcast
Visibility: 9 miles , 14 km
Cloud details: Overcast 1300 ft
2018/12/14 06:52 KATL 140652Z 09012KT 9SM -RA OVC013 09/04 A3011 RMK AO2 RAB23 SLP198 P0000 T00940044
KORL - Orlando, Florida
Updated: Fri, Dec-Fri-2018 12:53am
Clear
Clear
 Wind from SE
Wind: SE 10 mph , 17 km/h
Temperature: 66°F , 19°C
Dew Point: 64°F , 18°C
Humidity: 94%
Barometer: 30.02 inHg , 1016.6 hPa
Clouds: Clear
Visibility: 10 miles , 16 km
2018/12/14 06:53 KORL 140653Z AUTO 13009KT 10SM CLR 19/18 A3002 RMK AO2 SLP170 T01940178
KMSP - Minneapolis, Minnesota
Updated: Fri, Dec-Fri-2018 12:53am
Freezing fog, Overcast
Freezing fog, Overcast
 Wind from SW
Wind: SW 6 mph , 9 km/h
Temperature: 30°F , -1°C
Wind Chill: 24°F , -4°C
Dew Point: 30°F , -1°C
Humidity: 100%
Barometer: 30.17 inHg , 1021.7 hPa
Summary: Freezing Fog
Clouds: Overcast
Visibility: 1/2 mile , 2 km
Cloud details: Overcast 200 ft
2018/12/14 06:53 KMSP 140653Z 22005KT 1/2SM R30L/4500VP6000FT FZFG OVC002 M01/M01 A3017 RMK AO2 TWR VIS 3/4 SLP228 I1001 T10111011
 
KORD - Chicago, Illinois
Updated: Fri, Dec-Fri-2018 12:51am
Light rain, Mist, Overcast
Light rain, Mist, Overcast
 Wind from E
Wind: E 5 mph , 7 km/h
Temperature: 39°F , 4°C
Wind Chill: 35°F , 2°C
Dew Point: 39°F , 4°C
Humidity: 100%
Barometer: 30.08 inHg , 1018.6 hPa
Summary: Light rain, Mist
Clouds: Overcast
Visibility: 2 miles , 3 km
Cloud details: Mostly cloudy 400 ft
Overcast 3400 ft
2018/12/14 06:51 KORD 140651Z 09004KT 2SM -RA BR BKN004 OVC034 04/04 A3008 RMK AO2 RAB0551 SLP189 P0005 T00390039 $
KDFW - Dallas/Ft Worth, Texas
Updated: Fri, Dec-Fri-2018 1:02am
Light drizzle, Mist, Overcast
Light drizzle, Mist, Overcast
 Wind from N
Wind: N 20 mph , 31 km/h
Temperature: 45°F , 7°C
Wind Chill: 37°F , 3°C
Dew Point: 43°F , 6°C
Humidity: 93%
Barometer: 29.81 inHg , 1009.5 hPa
Summary: Light drizzle, Mist
Clouds: Overcast
Visibility: 6 miles , 10 km
Cloud details: Partly cloudy 900 ft
Overcast 1600 ft
2018/12/14 07:02 KDFW 140702Z 35017KT 6SM -DZ BR SCT009 OVC016 07/06 A2981 RMK AO2 P0000 T00670056
KHOU - Houston, Texas
Updated: Fri, Dec-Fri-2018 12:53am
Mostly cloudy
Mostly cloudy
 Wind from W
Wind: W 18 mph , 30 km/h, Gust: 25 mph , 41 km/h
Temperature: 50°F , 10°C
Wind Chill: 44°F , 7°C
Dew Point: 37°F , 3°C
Humidity: 62%
Barometer: 29.84 inHg , 1010.5 hPa
Clouds: Mostly cloudy
Visibility: 10 miles , 16 km
Cloud details: Mostly cloudy 3700 ft
2018/12/14 06:53 KHOU 140653Z 26016G22KT 10SM BKN037 10/03 A2984 RMK AO2 SLP110 T01000028
 
KDEN - Denver, Colorado
Updated: Fri, Dec-Fri-2018 12:53am
Mostly cloudy
Mostly cloudy
 Wind from WSW
Wind: WSW 9 mph , 15 km/h
Temperature: 25°F , -4°C
Wind Chill: 16°F , -9°C
Dew Point: 5°F , -15°C
Humidity: 42%
Barometer: 30.24 inHg , 1024 hPa
Clouds: Mostly cloudy
Visibility: 10 miles , 16 km
Cloud details: Mostly cloudy 22000 ft
2018/12/14 06:53 KDEN 140653Z 24008KT 10SM BKN220 M04/M15 A3024 RMK AO2 SLP252 T10391150 400441061
KSFO - San Francisco, California
Updated: Fri, Dec-Fri-2018 12:56am
Clear
Clear
 Wind from calm
Wind: Calm
Temperature: 52°F , 11°C
Dew Point: 43°F , 6°C
Humidity: 72%
Barometer: 30.11 inHg , 1019.6 hPa
Clouds: Clear
Visibility: 8 miles , 13 km
2018/12/14 06:56 KSFO 140656Z 00000KT 8SM CLR 11/06 A3011 RMK AO2 SLP195 T01110056
KLAX - Los Angeles, California
Updated: Fri, Dec-Fri-2018 12:53am
Mostly cloudy
Mostly cloudy
 Wind from NE
Wind: NE 10 mph , 17 km/h
Temperature: 63°F , 17°C
Dew Point: 30°F , -1°C
Humidity: 30%
Barometer: 30.19 inHg , 1022.4 hPa
Clouds: Mostly cloudy
Visibility: 10 miles , 16 km
Cloud details: Mostly cloudy 20000 ft
2018/12/14 06:53 KLAX 140653Z 04009KT 10SM BKN200 17/M01 A3019 RMK AO2 SLP220 T01721011